Главная страница
METAR-TAF:

METAR-TAF

Аэропорты :

Биллунн

Billund, Дания

широта: 55-44N, долгота: 009-10E, высота над уровнем моря: 75 м

Текущие метеонаблюдения

Эта сводка был подготовлена 42 минут назад, в 13:20 UTC
Ветер 7 Узел от северный, изменяющийся между северо-западный и северо-северо-восточный
Температура 27°C
Влажность 58%
Давление 1021 hPa
Видимость 10 км и более

METAR: EKBI 091320Z AUTO 36007KT 320V030 9999 SCT120/// BKN170/// 27/18 Q1021

Время: 16:02 (14:02 UTC)

Прогноз

Эта сводка был подготовлена 2 часа и 55 минут назад, в 11:07 UTC
Прогноз действительный с 09-го 12 UTC до 10-го 12 UTC
Ветер 5 Узел от северо-северо-восточный
Видимость 10 км и более
Нет облачности ниже 1500 м, и нет кучево-дождевой облачности

TAF: EKBI 091107Z 0912/1012 02005KT CAVOK

Метеонаблюдения и прогнозы для более 4000 аэропортов (сводки METAR и TAF).

Имеющиеся станции представлены на карте желтыми и красными точками.

Чтобы увидеть название станции, наведите на нее мышь.

Затем щелкните, чтобы увидеть метеонаблюдения и метеопрогнозы.

Управление картой: чтобы увеличить масштаб, щелкните зеленые кнопки с черным крестиком; чтобы уменьшить масштаб, щелкните зеленую кнопку с тире; для просмотра соседних карт щелкайте зеленые стрелки.


METAR-TAF: